Daily Summary for January 27, 2021 Units:  Metric    English   Both
Daily Weekly Monthly Yearly
  Current: High: Low: Average:
Temperature: 20.2 °C 20.5 °C 20.2 °C 20.4 °C
Dew Point: 19.3 °C 19.6 °C 19.3 °C 19.4 °C
Humidity: 95% 95% 94% 95%
Wind Speed: 1km/h 3.2km/h 0km/h 0.9km/h
Wind Gust: 6.4km/h 6.4km/h - -
WindSE - - East
Pressure: 1003.9 hPa 1003.9 hPa 1003.7 hPa -
Precipitation: 0.0 mm      
 
 
Tabular Data for January 27, 2021
Time Temperature Dew Point Pressure Wind Wind Speed Wind Gust Humidity Rainfall Rate (Hourly) solar
00:04 20.3 °C 19.3 °C 1003.7 hPa Calm   1.6 km/h 94% 0.0 mm 0 W/m2
00:09 20.5 °C 19.5 °C 1003.8 hPa Calm     94% 0.0 mm 0 W/m2
00:14 20.4 °C 19.4 °C 1003.9 hPa Calm   1.6 km/h 94% 0.0 mm 0 W/m2
00:19 20.3 °C 19.3 °C 1003.8 hPa Calm   1.6 km/h 94% 0.0 mm 0 W/m2
00:24 20.3 °C 19.3 °C 1003.8 hPa ENE 0.6 km/h 3.2 km/h 94% 0.0 mm 0 W/m2
00:29 20.4 °C 19.4 °C 1003.8 hPa ENE 1.6 km/h 3.2 km/h 94% 0.0 mm 0 W/m2
00:34 20.4 °C 19.4 °C 1003.8 hPa ENE 1.3 km/h 3.2 km/h 94% 0.0 mm 0 W/m2
00:39 20.4 °C 19.5 °C 1003.8 hPa Calm   1.6 km/h 94.4% 0.0 mm 0 W/m2
00:44 20.4 °C 19.6 °C 1003.9 hPa Calm   3.2 km/h 95% 0.0 mm 0 W/m2
00:49 20.4 °C 19.6 °C 1003.9 hPa Calm   3.2 km/h 95% 0.0 mm 0 W/m2
00:54 20.4 °C 19.5 °C 1003.9 hPa Calm   3.2 km/h 94.7% 0.0 mm 0 W/m2
00:59 20.4 °C 19.6 °C 1003.9 hPa Calm   3.2 km/h 95% 0.0 mm 0 W/m2
01:04 20.4 °C 19.6 °C 1003.9 hPa ENE 1.6 km/h 3.2 km/h 95% 0.0 mm 0 W/m2
01:09 20.4 °C 19.5 °C 1003.8 hPa ENE 1.6 km/h 4.8 km/h 94.6% 0.0 mm 0 W/m2
01:14 20.4 °C 19.5 °C 1003.8 hPa ENE 1.6 km/h 6.4 km/h 94.8% 0.0 mm 0 W/m2
01:19 20.3 °C 19.3 °C 1003.8 hPa East 1.6 km/h 6.4 km/h 94% 0.0 mm 0 W/m2
01:24 20.3 °C 19.4 °C 1003.8 hPa East 3.2 km/h 6.4 km/h 94.7% 0.0 mm 0 W/m2
01:29 20.3 °C 19.3 °C 1003.9 hPa East 1.9 km/h 6.4 km/h 94.3% 0.0 mm 0 W/m2
01:34 20.3 °C 19.4 °C 1003.9 hPa East 1.6 km/h 6.4 km/h 95% 0.0 mm 0 W/m2
01:39 20.3 °C 19.4 °C 1003.8 hPa ESE 1.6 km/h 6.4 km/h 94.9% 0.0 mm 0 W/m2
01:44 20.2 °C 19.3 °C 1003.8 hPa ESE 1.6 km/h 6.4 km/h 94.9% 0.0 mm 0 W/m2
01:49 20.2 °C 19.3 °C 1003.9 hPa SE 1 km/h 6.4 km/h 95% 0.0 mm 0 W/m2
Compliments of Weather Underground - 1 mb

Latitude S 35° 13' 00" Longitude E 149° 01' 22" Elevation 577 m
Page updated 27/01/2021 1:45:01 AM.
Powered by Cumulus MX v3.2.0 (3056)